Time;durP1;ratioP1;P1;durP2;ratioP2;P2;SDS_P1;SDS_P2;PMS_P1;PMS_P2;Temp;Humidity;BMP_temperature;BMP_pressure;BME280_temperature;BME280_humidity;BME280_pressure;Samples;Min_cycle;Max_cycle;Signal;HPM_P1;HPM_P2
2021/04/26 00:02:09;;;;;;;5.22;3.33;;;;;;;;;;5053477;28;20205;-68
2021/04/26 00:04:35;;;;;;;3.30;3.00;;;;;;;;;;5052877;28;20191;-69
2021/04/26 00:07:02;;;;;;;7.15;3.03;;;;;;;;;;5052880;28;20794;-68
2021/04/26 00:09:29;;;;;;;3.78;3.05;;;;;;;;;;5053131;28;20197;-67
2021/04/26 00:11:56;;;;;;;5.55;3.55;;;;;;;;;;5053043;28;20631;-68
2021/04/26 00:14:23;;;;;;;3.30;3.00;;;;;;;;;;5053081;28;20254;-67
2021/04/26 00:16:50;;;;;;;3.10;2.80;;;;;;;;;;5053508;28;20252;-68
2021/04/26 00:19:17;;;;;;;3.13;2.83;;;;;;;;;;5052756;28;20197;-68
2021/04/26 00:21:44;;;;;;;3.88;3.47;;;;;;;;;;5053554;28;20309;-69
2021/04/26 00:24:11;;;;;;;4.05;3.45;;;;;;;;;;5053190;28;20233;-69
2021/04/26 00:26:38;;;;;;;3.65;3.10;;;;;;;;;;5052780;28;20763;-68
2021/04/26 00:29:04;;;;;;;4.85;3.50;;;;;;;;;;5053094;28;20202;-68
2021/04/26 00:31:31;;;;;;;9.52;3.47;;;;;;;;;;5052562;28;20215;-68
2021/04/26 00:33:59;;;;;;;4.05;3.13;;;;;;;;;;5052951;28;20590;-69
2021/04/26 00:36:25;;;;;;;3.78;3.15;;;;;;;;;;5053153;28;20349;-68
2021/04/26 00:38:52;;;;;;;6.20;3.15;;;;;;;;;;5052987;28;20286;-68
2021/04/26 00:41:19;;;;;;;4.60;3.35;;;;;;;;;;5052679;28;20374;-69
2021/04/26 00:43:46;;;;;;;3.45;3.10;;;;;;;;;;5052570;28;20669;-67
2021/04/26 00:46:13;;;;;;;7.47;3.85;;;;;;;;;;5052855;28;20195;-68
2021/04/26 00:48:40;;;;;;;4.13;3.42;;;;;;;;;;5052878;28;20562;-68
2021/04/26 00:51:07;;;;;;;4.70;3.45;;;;;;;;;;5053063;28;20519;-68
2021/04/26 00:53:35;;;;;;;4.03;2.83;;;;;;;;;;5053021;28;20291;-69
2021/04/26 00:56:01;;;;;;;7.90;3.50;;;;;;;;;;5053043;28;20222;-68
2021/04/26 00:58:28;;;;;;;4.88;3.70;;;;;;;;;;5052525;28;20199;-68
2021/04/26 01:00:55;;;;;;;3.03;2.70;;;;;;;;;;5052607;28;20238;-68
2021/04/26 01:03:22;;;;;;;5.40;3.38;;;;;;;;;;5052304;28;20206;-68
2021/04/26 01:05:49;;;;;;;4.03;2.80;;;;;;;;;;5052575;28;20196;-68
2021/04/26 01:08:16;;;;;;;3.30;3.00;;;;;;;;;;5053543;28;20197;-69
2021/04/26 01:10:43;;;;;;;4.30;3.05;;;;;;;;;;5055783;28;20218;-68
2021/04/26 01:13:37;;;;;;;3.17;2.97;;;;;;;;;;5056236;28;20241;-68
2021/04/26 01:16:07;;;;;;;3.95;3.03;;;;;;;;;;5032109;28;20199;-68
2021/04/26 01:18:37;;;;;;;4.38;3.05;;;;;;;;;;5057224;28;20226;-69
2021/04/26 01:21:19;;;;;;;3.78;3.40;;;;;;;;;;5056722;28;20187;-68
2021/04/26 01:24:01;;;;;;;4.60;3.05;;;;;;;;;;5033559;28;20287;-68
2021/04/26 01:26:30;;;;;;;3.10;2.90;;;;;;;;;;5056563;28;20186;-68
2021/04/26 01:29:04;;;;;;;4.97;3.10;;;;;;;;;;5055877;28;20252;-68
2021/04/26 01:31:40;;;;;;;4.22;3.33;;;;;;;;;;5055986;28;20211;-67
2021/04/26 01:34:08;;;;;;;3.10;2.88;;;;;;;;;;5056085;28;20233;-68
2021/04/26 01:36:34;;;;;;;4.47;3.30;;;;;;;;;;5055980;28;20199;-68
2021/04/26 01:39:01;;;;;;;5.88;3.53;;;;;;;;;;5055564;28;20196;-68
2021/04/26 01:41:29;;;;;;;4.03;3.30;;;;;;;;;;5055311;28;20199;-68
2021/04/26 01:43:56;;;;;;;3.78;3.10;;;;;;;;;;5055252;28;20307;-68
2021/04/26 01:46:24;;;;;;;9.77;3.00;;;;;;;;;;5055235;28;20679;-68
2021/04/26 01:48:53;;;;;;;5.72;3.17;;;;;;;;;;5055676;28;20227;-68
2021/04/26 01:51:21;;;;;;;4.50;3.40;;;;;;;;;;5055603;28;20211;-68
2021/04/26 01:53:48;;;;;;;3.35;3.05;;;;;;;;;;5055134;28;20211;-68
2021/04/26 01:56:16;;;;;;;3.28;3.00;;;;;;;;;;5055078;28;20337;-68
2021/04/26 01:58:44;;;;;;;3.38;3.08;;;;;;;;;;5055527;28;20621;-68
2021/04/26 02:01:14;;;;;;;3.15;2.53;;;;;;;;;;5055487;28;20290;-68
2021/04/26 02:03:41;;;;;;;4.15;2.55;;;;;;;;;;5055204;28;20274;-68
2021/04/26 02:06:08;;;;;;;4.05;2.97;;;;;;;;;;5055106;28;20195;-68
2021/04/26 02:08:36;;;;;;;6.72;3.28;;;;;;;;;;5054918;28;20195;-68
2021/04/26 02:11:04;;;;;;;2.72;2.45;;;;;;;;;;5054850;28;20229;-68
2021/04/26 02:13:31;;;;;;;4.70;3.65;;;;;;;;;;5055402;28;20195;-68
2021/04/26 02:15:58;;;;;;;3.55;3.25;;;;;;;;;;5055200;28;20208;-68
2021/04/26 02:18:25;;;;;;;4.20;3.15;;;;;;;;;;5055345;28;20203;-68
2021/04/26 02:20:52;;;;;;;4.55;3.40;;;;;;;;;;5054640;28;20205;-68
2021/04/26 02:23:18;;;;;;;5.38;3.60;;;;;;;;;;5055758;28;20201;-68
2021/04/26 02:25:46;;;;;;;3.47;3.08;;;;;;;;;;5055045;28;20286;-68
2021/04/26 02:28:13;;;;;;;3.60;3.20;;;;;;;;;;5054935;28;20195;-69
2021/04/26 02:30:40;;;;;;;3.72;2.80;;;;;;;;;;5054740;28;20223;-69
2021/04/26 02:33:09;;;;;;;3.05;2.70;;;;;;;;;;5054737;28;20200;-68
2021/04/26 02:35:37;;;;;;;3.67;3.38;;;;;;;;;;5054865;28;20195;-68
2021/04/26 02:38:05;;;;;;;4.15;3.53;;;;;;;;;;5055136;28;20199;-68
2021/04/26 02:40:35;;;;;;;4.20;3.15;;;;;;;;;;5055183;28;20256;-68
2021/04/26 02:43:03;;;;;;;3.28;2.97;;;;;;;;;;5054540;28;20184;-67
2021/04/26 02:45:32;;;;;;;3.42;2.95;;;;;;;;;;5054283;28;20306;-68
2021/04/26 02:48:00;;;;;;;7.03;2.88;;;;;;;;;;5054474;28;20421;-67
2021/04/26 02:50:27;;;;;;;4.85;3.20;;;;;;;;;;5054630;28;20230;-69
2021/04/26 02:52:54;;;;;;;3.83;3.00;;;;;;;;;;5054117;28;20203;-68
2021/04/26 02:55:22;;;;;;;4.25;3.70;;;;;;;;;;5054417;28;20290;-68
2021/04/26 02:57:49;;;;;;;3.60;3.10;;;;;;;;;;5053950;28;20316;-68
2021/04/26 03:00:18;;;;;;;3.28;2.97;;;;;;;;;;5053905;28;20191;-68
2021/04/26 03:02:45;;;;;;;4.63;3.25;;;;;;;;;;5053928;28;20203;-68
2021/04/26 03:05:13;;;;;;;3.55;3.25;;;;;;;;;;5054238;28;20191;-67
2021/04/26 03:07:40;;;;;;;3.72;3.13;;;;;;;;;;5054336;28;20274;-67
2021/04/26 03:10:08;;;;;;;4.00;2.88;;;;;;;;;;5054088;28;20206;-69
2021/04/26 03:12:38;;;;;;;3.15;2.83;;;;;;;;;;5053729;28;20229;-68
2021/04/26 03:15:05;;;;;;;4.65;3.30;;;;;;;;;;5054032;28;20203;-68
2021/04/26 03:17:33;;;;;;;7.63;3.85;;;;;;;;;;5053706;28;20299;-68
2021/04/26 03:20:00;;;;;;;4.38;3.40;;;;;;;;;;5053762;28;20220;-68
2021/04/26 03:22:27;;;;;;;3.70;2.85;;;;;;;;;;5053859;28;20289;-68
2021/04/26 03:24:54;;;;;;;4.13;3.42;;;;;;;;;;5053610;28;20221;-68
2021/04/26 03:27:22;;;;;;;3.92;3.05;;;;;;;;;;5053996;28;20207;-67
2021/04/26 03:29:51;;;;;;;7.15;3.97;;;;;;;;;;5053768;28;20195;-67
2021/04/26 03:32:18;;;;;;;5.50;3.40;;;;;;;;;;5053577;28;20324;-68
2021/04/26 03:34:46;;;;;;;4.32;3.95;;;;;;;;;;5053385;28;20665;-67
2021/04/26 03:37:14;;;;;;;3.15;2.85;;;;;;;;;;5053321;28;20225;-67
2021/04/26 03:39:41;;;;;;;4.88;3.35;;;;;;;;;;5054432;28;20191;-68
2021/04/26 03:42:08;;;;;;;4.90;3.28;;;;;;;;;;5053313;28;20264;-68
2021/04/26 03:44:35;;;;;;;4.28;3.20;;;;;;;;;;5053213;28;20200;-67
2021/04/26 03:47:02;;;;;;;3.30;3.00;;;;;;;;;;5053531;28;20226;-68
2021/04/26 03:49:29;;;;;;;3.85;3.50;;;;;;;;;;5053466;28;20272;-70
2021/04/26 03:51:57;;;;;;;3.80;3.50;;;;;;;;;;5053445;28;20230;-68
2021/04/26 03:54:23;;;;;;;4.85;3.67;;;;;;;;;;5053398;28;20194;-69
2021/04/26 03:56:50;;;;;;;3.20;2.83;;;;;;;;;;5053616;28;20232;-69
2021/04/26 03:59:17;;;;;;;3.63;3.10;;;;;;;;;;5053351;28;20244;-68
2021/04/26 04:01:44;;;;;;;3.90;3.17;;;;;;;;;;5053101;28;20276;-68
2021/04/26 04:04:11;;;;;;;3.80;3.40;;;;;;;;;;5053055;28;20671;-68
2021/04/26 04:06:38;;;;;;;4.38;3.22;;;;;;;;;;5052932;28;20286;-67
2021/04/26 04:09:06;;;;;;;4.45;2.75;;;;;;;;;;5053427;28;20284;-67
2021/04/26 04:11:33;;;;;;;4.88;3.70;;;;;;;;;;5053037;28;20321;-68
2021/04/26 04:14:00;;;;;;;4.55;3.50;;;;;;;;;;5053431;28;20194;-67
2021/04/26 04:16:27;;;;;;;3.58;3.28;;;;;;;;;;5053203;28;20203;-69
2021/04/26 04:18:54;;;;;;;4.95;3.70;;;;;;;;;;5053421;28;20195;-68
2021/04/26 04:21:21;;;;;;;4.05;3.53;;;;;;;;;;5053044;28;20202;-68
2021/04/26 04:23:48;;;;;;;3.75;3.45;;;;;;;;;;5052917;28;20203;-68
2021/04/26 04:26:15;;;;;;;5.68;3.80;;;;;;;;;;5054075;28;20305;-67
2021/04/26 04:28:42;;;;;;;4.13;3.25;;;;;;;;;;5056402;28;20191;-67
2021/04/26 04:31:09;;;;;;;3.65;3.22;;;;;;;;;;5064705;28;20257;-68
2021/04/26 04:33:35;;;;;;;4.28;3.80;;;;;;;;;;5053925;28;20282;-66
2021/04/26 04:36:02;;;;;;;4.72;3.80;;;;;;;;;;5052993;28;20202;-68
2021/04/26 04:38:29;;;;;;;3.95;3.42;;;;;;;;;;5054721;28;20229;-68
2021/04/26 04:40:56;;;;;;;5.40;3.25;;;;;;;;;;5054639;28;20194;-69
2021/04/26 04:43:24;;;;;;;3.83;3.42;;;;;;;;;;5054611;28;20233;-68
2021/04/26 04:45:51;;;;;;;4.55;3.72;;;;;;;;;;5058216;28;20249;-67
2021/04/26 04:48:18;;;;;;;4.03;3.67;;;;;;;;;;5057474;28;20260;-68
2021/04/26 04:50:45;;;;;;;4.20;3.80;;;;;;;;;;5057304;28;20322;-68
2021/04/26 04:53:12;;;;;;;6.05;3.85;;;;;;;;;;5057255;28;20190;-68
2021/04/26 04:55:38;;;;;;;12.18;4.30;;;;;;;;;;5056734;28;20199;-68
2021/04/26 04:58:05;;;;;;;8.05;4.05;;;;;;;;;;5057529;28;20199;-67
2021/04/26 05:00:33;;;;;;;5.03;3.28;;;;;;;;;;5076328;28;20285;-67
2021/04/26 05:03:00;;;;;;;4.80;3.80;;;;;;;;;;5077411;28;20281;-68
2021/04/26 05:05:26;;;;;;;5.70;3.70;;;;;;;;;;5076390;28;20311;-68
2021/04/26 05:07:53;;;;;;;8.20;3.60;;;;;;;;;;5076437;28;20193;-68
2021/04/26 05:10:20;;;;;;;6.43;3.70;;;;;;;;;;5076603;28;20197;-68
2021/04/26 05:12:46;;;;;;;6.35;3.42;;;;;;;;;;5077018;28;20232;-68
2021/04/26 05:15:14;;;;;;;10.48;3.25;;;;;;;;;;5076530;28;20285;-68
2021/04/26 05:17:42;;;;;;;3.63;3.20;;;;;;;;;;5076214;28;20273;-69
2021/04/26 05:20:09;;;;;;;5.35;3.85;;;;;;;;;;5075693;28;20194;-67
2021/04/26 05:22:36;;;;;;;6.82;3.67;;;;;;;;;;5075820;28;20209;-67
2021/04/26 05:25:03;;;;;;;3.67;3.25;;;;;;;;;;5076036;28;20501;-67
2021/04/26 05:27:29;;;;;;;3.75;3.17;;;;;;;;;;5075874;28;20191;-67
2021/04/26 05:29:56;;;;;;;5.53;3.03;;;;;;;;;;5075337;28;20649;-68
2021/04/26 05:32:23;;;;;;;5.05;3.65;;;;;;;;;;5075797;28;20304;-67
2021/04/26 05:34:50;;;;;;;5.85;3.65;;;;;;;;;;5075774;28;20213;-67
2021/04/26 05:37:17;;;;;;;6.70;3.97;;;;;;;;;;5075762;28;20197;-68
2021/04/26 05:39:44;;;;;;;5.47;3.80;;;;;;;;;;5075771;28;20301;-67
2021/04/26 05:42:10;;;;;;;3.80;3.25;;;;;;;;;;5075361;28;20194;-68
2021/04/26 05:44:37;;;;;;;13.15;5.53;;;;;;;;;;5075601;28;20289;-68
2021/04/26 05:47:04;;;;;;;4.75;3.33;;;;;;;;;;5075654;28;20194;-67
2021/04/26 05:49:31;;;;;;;4.10;3.70;;;;;;;;;;5075668;28;20554;-68
2021/04/26 05:51:58;;;;;;;6.53;3.55;;;;;;;;;;5075053;28;20214;-68
2021/04/26 05:54:25;;;;;;;8.73;3.75;;;;;;;;;;5074430;28;20560;-67
2021/04/26 05:56:52;;;;;;;4.40;3.75;;;;;;;;;;5075612;28;20281;-64
2021/04/26 05:59:18;;;;;;;5.13;3.75;;;;;;;;;;5076035;28;20194;-64
2021/04/26 06:01:45;;;;;;;11.32;3.83;;;;;;;;;;5075096;28;20289;-64
2021/04/26 06:04:12;;;;;;;5.20;3.78;;;;;;;;;;5074998;28;20723;-65
2021/04/26 06:06:39;;;;;;;4.15;3.75;;;;;;;;;;5075306;28;20309;-64
2021/04/26 06:09:06;;;;;;;14.40;4.28;;;;;;;;;;5074915;28;20194;-64
2021/04/26 06:11:33;;;;;;;7.03;4.05;;;;;;;;;;5075165;28;20229;-64
2021/04/26 06:14:00;;;;;;;7.43;4.13;;;;;;;;;;5075704;28;20199;-64
2021/04/26 06:16:26;;;;;;;4.85;3.80;;;;;;;;;;5075112;28;20296;-65
2021/04/26 06:18:53;;;;;;;13.63;4.38;;;;;;;;;;5075210;28;20199;-65
2021/04/26 06:21:20;;;;;;;5.30;3.72;;;;;;;;;;5074813;28;20220;-66
2021/04/26 06:23:47;;;;;;;5.47;3.70;;;;;;;;;;5075754;28;20526;-65
2021/04/26 06:26:14;;;;;;;4.50;3.88;;;;;;;;;;5075439;28;20194;-65
2021/04/26 06:28:41;;;;;;;7.07;4.38;;;;;;;;;;5074594;28;20199;-65
2021/04/26 06:31:08;;;;;;;9.07;3.80;;;;;;;;;;5075028;28;20194;-66
2021/04/26 06:33:34;;;;;;;6.90;5.22;;;;;;;;;;5074823;28;20555;-66
2021/04/26 06:36:01;;;;;;;5.57;4.25;;;;;;;;;;5075099;28;20285;-65
2021/04/26 06:38:28;;;;;;;7.38;4.43;;;;;;;;;;5074397;28;20198;-65
2021/04/26 06:40:54;;;;;;;5.75;4.03;;;;;;;;;;5074682;28;20190;-66
2021/04/26 06:43:22;;;;;;;6.03;3.40;;;;;;;;;;5074360;28;20356;-66
2021/04/26 06:45:49;;;;;;;7.85;4.30;;;;;;;;;;5074163;28;20233;-65
2021/04/26 06:48:16;;;;;;;6.47;4.18;;;;;;;;;;5074706;28;20199;-65
2021/04/26 06:50:43;;;;;;;5.90;3.60;;;;;;;;;;5074512;28;20234;-65
2021/04/26 06:53:10;;;;;;;5.32;3.42;;;;;;;;;;5074214;28;20222;-66
2021/04/26 06:55:37;;;;;;;5.53;5.00;;;;;;;;;;5074049;28;20804;-65
2021/04/26 06:58:04;;;;;;;4.80;3.90;;;;;;;;;;5074620;28;20251;-66
2021/04/26 07:00:32;;;;;;;7.03;3.92;;;;;;;;;;5074235;28;20232;-66
2021/04/26 07:02:59;;;;;;;7.13;3.70;;;;;;;;;;5074889;28;20199;-66
2021/04/26 07:05:25;;;;;;;4.95;4.45;;;;;;;;;;5074135;28;20268;-65
2021/04/26 07:07:52;;;;;;;4.43;3.97;;;;;;;;;;5074080;28;20221;-65
2021/04/26 07:10:19;;;;;;;9.52;4.10;;;;;;;;;;5073744;28;20241;-65
2021/04/26 07:12:46;;;;;;;5.32;3.58;;;;;;;;;;5074170;28;20249;-66
2021/04/26 07:15:15;;;;;;;7.30;4.00;;;;;;;;;;5073659;28;20748;-65
2021/04/26 07:17:42;;;;;;;4.18;3.75;;;;;;;;;;5073583;28;20194;-65
2021/04/26 07:20:10;;;;;;;6.72;4.30;;;;;;;;;;5073449;28;20744;-65
2021/04/26 07:22:37;;;;;;;4.28;3.88;;;;;;;;;;5073307;28;20293;-66
2021/04/26 07:25:04;;;;;;;7.80;3.65;;;;;;;;;;5073171;28;20209;-65
2021/04/26 07:27:30;;;;;;;5.20;4.00;;;;;;;;;;5073298;28;20255;-65
2021/04/26 07:29:57;;;;;;;10.18;4.68;;;;;;;;;;5073731;28;20599;-65
2021/04/26 07:32:24;;;;;;;8.10;4.72;;;;;;;;;;5073146;28;20688;-65
2021/04/26 07:34:52;;;;;;;6.07;4.75;;;;;;;;;;5073208;28;20226;-65
2021/04/26 07:37:19;;;;;;;7.10;6.10;;;;;;;;;;5073574;28;20201;-65
2021/04/26 07:39:46;;;;;;;9.48;4.65;;;;;;;;;;5073404;28;20287;-67
2021/04/26 07:42:12;;;;;;;9.23;4.22;;;;;;;;;;5073294;28;20309;-66
2021/04/26 07:44:39;;;;;;;12.35;4.25;;;;;;;;;;5073399;28;20279;-65
2021/04/26 07:47:07;;;;;;;4.68;3.97;;;;;;;;;;5072983;28;20285;-66
2021/04/26 07:49:33;;;;;;;7.05;4.57;;;;;;;;;;5072992;28;20226;-66
2021/04/26 07:52:01;;;;;;;18.83;4.70;;;;;;;;;;5072803;28;20317;-65
2021/04/26 07:54:28;;;;;;;4.68;3.88;;;;;;;;;;5073035;28;20200;-65
2021/04/26 07:56:55;;;;;;;13.13;4.30;;;;;;;;;;5073125;28;20630;-67
2021/04/26 07:59:23;;;;;;;6.65;4.60;;;;;;;;;;5072833;28;20233;-66
2021/04/26 08:01:49;;;;;;;11.35;4.38;;;;;;;;;;5073114;28;20380;-66
2021/04/26 08:04:16;;;;;;;11.15;4.10;;;;;;;;;;5073069;28;20195;-65
2021/04/26 08:06:43;;;;;;;9.23;5.55;;;;;;;;;;5072775;28;20195;-65
2021/04/26 08:09:11;;;;;;;9.48;3.90;;;;;;;;;;5073326;28;20282;-66
2021/04/26 08:11:37;;;;;;;8.95;4.97;;;;;;;;;;5072731;28;20268;-66
2021/04/26 08:14:04;;;;;;;4.53;4.13;;;;;;;;;;5072663;28;20797;-65
2021/04/26 08:16:31;;;;;;;4.45;3.95;;;;;;;;;;5073245;28;20198;-65
2021/04/26 08:18:57;;;;;;;4.03;3.53;;;;;;;;;;5071740;28;20235;-65
2021/04/26 08:21:25;;;;;;;4.10;3.80;;;;;;;;;;5073012;28;20199;-65
2021/04/26 08:23:53;;;;;;;10.93;4.75;;;;;;;;;;5072900;28;20345;-66
2021/04/26 08:26:21;;;;;;;8.90;4.53;;;;;;;;;;5072557;28;20654;-66
2021/04/26 08:28:48;;;;;;;9.25;4.22;;;;;;;;;;5072537;28;20206;-66
2021/04/26 08:31:14;;;;;;;6.88;4.60;;;;;;;;;;5072769;28;20229;-66
2021/04/26 08:33:41;;;;;;;4.28;3.88;;;;;;;;;;5073276;28;20278;-65
2021/04/26 08:36:08;;;;;;;7.13;3.25;;;;;;;;;;5072458;28;20281;-65
2021/04/26 08:38:35;;;;;;;5.45;4.60;;;;;;;;;;5072487;28;20281;-66
2021/04/26 08:41:02;;;;;;;4.20;3.80;;;;;;;;;;5072592;28;20195;-65
2021/04/26 08:43:30;;;;;;;7.63;5.18;;;;;;;;;;5072594;28;20241;-66
2021/04/26 08:45:59;;;;;;;3.92;3.63;;;;;;;;;;5072415;28;20724;-67
2021/04/26 08:48:27;;;;;;;4.40;4.00;;;;;;;;;;5072452;28;20205;-65
2021/04/26 08:50:54;;;;;;;4.00;3.20;;;;;;;;;;5072464;28;20191;-65
2021/04/26 08:53:21;;;;;;;3.22;2.97;;;;;;;;;;5072672;28;20246;-66
2021/04/26 08:55:48;;;;;;;4.25;3.30;;;;;;;;;;5072700;28;20234;-66
2021/04/26 08:58:15;;;;;;;4.18;3.28;;;;;;;;;;5072397;28;20259;-66
2021/04/26 09:00:42;;;;;;;3.05;2.70;;;;;;;;;;5072780;28;20624;-65
2021/04/26 09:03:09;;;;;;;3.58;3.17;;;;;;;;;;5072314;28;20200;-65
2021/04/26 09:05:37;;;;;;;3.97;3.33;;;;;;;;;;5072722;28;20199;-65
2021/04/26 09:08:05;;;;;;;8.05;5.50;;;;;;;;;;5072496;28;20286;-66
2021/04/26 09:10:42;;;;;;;5.47;3.65;;;;;;;;;;5072986;28;20195;-65
2021/04/26 09:13:40;;;;;;;3.42;3.00;;;;;;;;;;5073078;28;20677;-65
2021/04/26 09:16:09;;;;;;;5.35;3.38;;;;;;;;;;5073088;28;20185;-66
2021/04/26 09:18:49;;;;;;;7.82;4.15;;;;;;;;;;5072937;28;20336;-65
2021/04/26 09:21:17;;;;;;;3.25;2.65;;;;;;;;;;5072260;28;20263;-65
2021/04/26 09:23:44;;;;;;;3.85;3.40;;;;;;;;;;5072544;28;20646;-65
2021/04/26 09:26:24;;;;;;;4.05;3.10;;;;;;;;;;5073270;28;20334;-65
2021/04/26 09:29:10;;;;;;;3.40;3.13;;;;;;;;;;5073010;28;20186;-65
2021/04/26 09:31:37;;;;;;;7.15;3.40;;;;;;;;;;5075810;28;20249;-65
2021/04/26 09:34:04;;;;;;;4.03;3.72;;;;;;;;;;5076120;28;20200;-65
2021/04/26 09:36:32;;;;;;;5.05;3.30;;;;;;;;;;5077549;28;20200;-65
2021/04/26 09:39:03;;;;;;;4.28;3.10;;;;;;;;;;5076262;28;20195;-65
2021/04/26 09:41:30;;;;;;;5.47;4.30;;;;;;;;;;5076335;28;20619;-66
2021/04/26 09:44:10;;;;;;;6.22;4.40;;;;;;;;;;5075447;28;20288;-65
2021/04/26 09:46:42;;;;;;;3.88;3.50;;;;;;;;;;5075395;28;20203;-65
2021/04/26 09:49:10;;;;;;;3.80;3.28;;;;;;;;;;5076053;28;20645;-65
2021/04/26 09:51:37;;;;;;;3.97;3.67;;;;;;;;;;5075817;28;20258;-65
2021/04/26 09:54:04;;;;;;;5.88;3.60;;;;;;;;;;5075526;28;20204;-65
2021/04/26 09:56:33;;;;;;;3.70;3.17;;;;;;;;;;5075746;28;20242;-65
2021/04/26 09:59:02;;;;;;;3.40;3.08;;;;;;;;;;5075269;28;20254;-65
2021/04/26 10:01:29;;;;;;;5.20;3.40;;;;;;;;;;5075259;28;20193;-65
2021/04/26 10:03:57;;;;;;;4.60;3.90;;;;;;;;;;5075196;28;20678;-65
2021/04/26 10:06:25;;;;;;;3.80;3.47;;;;;;;;;;5075971;28;20378;-65
2021/04/26 10:08:52;;;;;;;4.63;4.20;;;;;;;;;;5075341;28;20604;-65
2021/04/26 10:11:19;;;;;;;4.22;3.13;;;;;;;;;;5075316;28;20546;-65
2021/04/26 10:13:47;;;;;;;3.90;3.50;;;;;;;;;;5075397;28;20200;-65
2021/04/26 10:16:15;;;;;;;3.40;3.10;;;;;;;;;;5075468;28;20274;-65
2021/04/26 10:18:42;;;;;;;8.65;5.97;;;;;;;;;;5074805;28;20312;-65
2021/04/26 10:21:28;;;;;;;4.18;3.88;;;;;;;;;;5074797;28;20197;-65
2021/04/26 10:23:55;;;;;;;4.63;3.10;;;;;;;;;;5075593;28;20278;-66
2021/04/26 10:26:42;;;;;;;4.68;3.25;;;;;;;;;;5075099;28;20253;-65
2021/04/26 10:29:10;;;;;;;3.70;3.10;;;;;;;;;;5074703;28;20291;-66
2021/04/26 10:31:51;;;;;;;5.68;3.63;;;;;;;;;;5074332;28;20302;-65
2021/04/26 10:34:18;;;;;;;4.15;3.75;;;;;;;;;;5074354;28;20196;-65
2021/04/26 10:36:46;;;;;;;4.20;3.80;;;;;;;;;;5074295;28;20203;-65
2021/04/26 10:39:15;;;;;;;4.47;3.83;;;;;;;;;;5074433;28;20223;-64
2021/04/26 10:42:08;;;;;;;11.77;5.40;;;;;;;;;;5074047;28;20232;-65
2021/04/26 10:44:50;;;;;;;4.60;4.00;;;;;;;;;;5050280;28;20190;-65
2021/04/26 10:47:17;;;;;;;5.13;3.53;;;;;;;;;;5074545;28;20235;-65
2021/04/26 10:49:45;;;;;;;7.22;4.20;;;;;;;;;;5074265;28;20243;-65
2021/04/26 10:52:30;;;;;;;7.78;3.25;;;;;;;;;;5073851;28;20236;-65
2021/04/26 10:54:59;;;;;;;5.25;3.05;;;;;;;;;;5074222;28;20209;-65
2021/04/26 10:57:32;;;;;;;5.68;3.33;;;;;;;;;;5074154;28;20200;-65
2021/04/26 11:00:14;;;;;;;4.10;3.45;;;;;;;;;;5073961;28;20234;-65
2021/04/26 11:02:41;;;;;;;8.07;3.78;;;;;;;;;;5073721;28;20730;-64
2021/04/26 11:05:17;;;;;;;3.60;3.30;;;;;;;;;;5073728;28;20237;-64
2021/04/26 11:07:47;;;;;;;2.77;2.57;;;;;;;;;;5073612;28;20673;-65
2021/04/26 11:10:42;;;;;;;4.22;3.13;;;;;;;;;;5073994;28;20530;-65
2021/04/26 11:13:23;;;;;;;3.80;3.35;;;;;;;;;;5049428;28;20240;-65
2021/04/26 11:16:03;;;;;;;5.15;4.10;;;;;;;;;;5073439;28;20196;-65
2021/04/26 11:18:31;;;;;;;4.15;3.00;;;;;;;;;;5073780;28;20276;-65
2021/04/26 11:20:58;;;;;;;12.77;3.97;;;;;;;;;;5073581;28;20274;-66
2021/04/26 11:23:41;;;;;;;6.50;3.47;;;;;;;;;;5073095;28;20209;-67
2021/04/26 11:26:15;;;;;;;4.45;3.28;;;;;;;;;;5073177;28;20283;-66
2021/04/26 11:29:04;;;;;;;3.67;3.37;;;;;;;;;;5073106;28;20224;-65
2021/04/26 11:31:49;;;;;;;2.90;2.70;;;;;;;;;;5073550;28;20486;-66
2021/04/26 11:34:18;;;;;;;3.35;3.05;;;;;;;;;;5073085;28;20296;-65
2021/04/26 11:37:08;;;;;;;3.88;3.47;;;;;;;;;;5073241;28;20316;-65
2021/04/26 11:39:36;;;;;;;5.22;3.47;;;;;;;;;;5073690;28;20346;-66
2021/04/26 11:42:03;;;;;;;4.22;3.83;;;;;;;;;;5073264;28;20253;-66
2021/04/26 11:44:30;;;;;;;5.10;3.80;;;;;;;;;;5073246;28;20239;-65
2021/04/26 11:47:01;;;;;;;4.35;3.95;;;;;;;;;;5072906;28;20534;-67
2021/04/26 11:49:29;;;;;;;3.87;3.47;;;;;;;;;;5073481;28;20625;-65
2021/04/26 11:51:57;;;;;;;4.18;3.75;;;;;;;;;;5072415;28;20541;-65
2021/04/26 11:54:25;;;;;;;5.57;3.95;;;;;;;;;;5072408;28;20203;-66
2021/04/26 11:57:02;;;;;;;8.33;3.73;;;;;;;;;;5072729;28;20229;-66
2021/04/26 11:59:29;;;;;;;5.20;3.60;;;;;;;;;;5073146;28;20444;-66
2021/04/26 12:01:56;;;;;;;4.55;3.75;;;;;;;;;;5073094;28;20562;-66
2021/04/26 12:04:36;;;;;;;5.40;4.37;;;;;;;;;;5072885;28;20671;-66
2021/04/26 12:07:03;;;;;;;5.20;4.20;;;;;;;;;;5072509;28;20486;-66
2021/04/26 12:09:30;;;;;;;6.40;3.73;;;;;;;;;;5073012;28;20667;-66
2021/04/26 12:11:58;;;;;;;4.73;3.57;;;;;;;;;;5072729;28;20519;-67
2021/04/26 12:14:24;;;;;;;3.80;3.47;;;;;;;;;;5072411;28;20856;-65
2021/04/26 12:16:51;;;;;;;4.82;3.47;;;;;;;;;;5072421;28;20604;-66
2021/04/26 12:19:31;;;;;;;3.70;3.40;;;;;;;;;;5072664;28;20284;-66
2021/04/26 12:21:59;;;;;;;7.30;4.33;;;;;;;;;;5072746;28;20471;-66
2021/04/26 12:24:26;;;;;;;5.80;4.00;;;;;;;;;;5073125;28;20524;-67
2021/04/26 12:26:52;;;;;;;4.33;3.93;;;;;;;;;;5072669;28;20443;-66
2021/04/26 12:29:26;;;;;;;6.10;4.03;;;;;;;;;;5073357;28;20476;-66
2021/04/26 12:32:08;;;;;;;3.97;3.60;;;;;;;;;;5073049;28;20551;-65
2021/04/26 12:34:46;;;;;;;5.33;4.27;;;;;;;;;;5073076;28;20420;-66
2021/04/26 12:37:13;;;;;;;4.50;3.03;;;;;;;;;;5072801;28;20425;-66
2021/04/26 12:39:40;;;;;;;3.90;3.60;;;;;;;;;;5072801;28;20436;-66
2021/04/26 12:42:10;;;;;;;9.90;3.90;;;;;;;;;;5072812;28;20543;-66
2021/04/26 12:44:37;;;;;;;4.03;3.63;;;;;;;;;;5073442;28;20474;-65
2021/04/26 12:47:17;;;;;;;3.60;3.30;;;;;;;;;;5072557;28;20455;-69
2021/04/26 12:49:44;;;;;;;4.40;4.00;;;;;;;;;;5072667;28;20489;-69
2021/04/26 12:52:18;;;;;;;6.27;4.03;;;;;;;;;;5072565;28;20468;-68
2021/04/26 12:55:00;;;;;;;3.47;3.17;;;;;;;;;;5073395;28;20490;-68
2021/04/26 12:57:27;;;;;;;6.30;3.80;;;;;;;;;;5072924;28;20523;-68
2021/04/26 12:59:54;;;;;;;6.40;3.97;;;;;;;;;;5073151;28;20440;-68
2021/04/26 13:02:21;;;;;;;11.57;4.20;;;;;;;;;;5072606;28;20952;-68
2021/04/26 13:04:49;;;;;;;4.10;3.70;;;;;;;;;;5069606;28;20476;-68
2021/04/26 13:07:16;;;;;;;3.73;3.40;;;;;;;;;;5069505;28;20890;-69
2021/04/26 13:09:43;;;;;;;4.57;4.23;;;;;;;;;;5076051;28;20523;-68
2021/04/26 13:12:10;;;;;;;4.50;4.10;;;;;;;;;;5076359;28;20476;-69
2021/04/26 13:14:37;;;;;;;8.47;3.60;;;;;;;;;;5075790;28;20487;-68
2021/04/26 13:17:05;;;;;;;3.83;3.47;;;;;;;;;;5076277;28;20443;-69
2021/04/26 13:19:32;;;;;;;6.00;4.23;;;;;;;;;;5076370;28;20512;-69
2021/04/26 13:22:00;;;;;;;5.53;3.57;;;;;;;;;;5075750;28;20957;-68
2021/04/26 13:24:27;;;;;;;3.83;3.53;;;;;;;;;;5075682;28;20665;-69
2021/04/26 13:26:59;;;;;;;4.40;4.00;;;;;;;;;;5076566;28;20569;-70
2021/04/26 13:29:26;;;;;;;5.00;3.70;;;;;;;;;;5075984;28;20514;-69
2021/04/26 13:31:54;;;;;;;4.30;3.90;;;;;;;;;;5075850;28;20496;-69
2021/04/26 13:34:21;;;;;;;9.63;7.93;;;;;;;;;;5068361;28;20450;-69
2021/04/26 13:36:48;;;;;;;4.80;4.37;;;;;;;;;;5055547;28;21042;-69
2021/04/26 13:39:18;;;;;;;4.87;4.37;;;;;;;;;;5055581;28;20487;-69
2021/04/26 13:41:45;;;;;;;6.90;5.60;;;;;;;;;;5056190;28;20455;-69
2021/04/26 13:44:13;;;;;;;4.83;4.03;;;;;;;;;;5056658;28;20439;-70
2021/04/26 13:46:40;;;;;;;6.23;5.17;;;;;;;;;;5055458;28;20520;-69
2021/04/26 13:49:06;;;;;;;4.60;4.20;;;;;;;;;;5055416;28;20566;-69
2021/04/26 13:51:33;;;;;;;5.50;4.30;;;;;;;;;;5055573;28;20503;-69
2021/04/26 13:54:00;;;;;;;4.40;4.00;;;;;;;;;;5055564;28;20526;-69
2021/04/26 13:56:27;;;;;;;5.27;4.37;;;;;;;;;;5054840;28;20437;-69
2021/04/26 13:58:54;;;;;;;4.50;4.10;;;;;;;;;;5055630;28;20433;-69
2021/04/26 14:01:21;;;;;;;6.57;4.23;;;;;;;;;;5055050;28;20438;-69
2021/04/26 14:03:48;;;;;;;5.80;4.77;;;;;;;;;;5054650;28;20852;-69
2021/04/26 14:06:16;;;;;;;4.33;3.90;;;;;;;;;;5055481;28;20441;-69
2021/04/26 14:08:42;;;;;;;4.10;3.80;;;;;;;;;;5055713;28;20536;-69
2021/04/26 14:11:09;;;;;;;9.70;8.50;;;;;;;;;;5054749;28;20482;-69
2021/04/26 14:13:37;;;;;;;6.30;4.67;;;;;;;;;;5054858;28;20484;-68
2021/04/26 14:16:04;;;;;;;12.20;7.60;;;;;;;;;;5053743;28;20484;-69
2021/04/26 14:18:32;;;;;;;5.63;4.40;;;;;;;;;;5055001;28;20525;-69
2021/04/26 14:20:58;;;;;;;10.63;4.60;;;;;;;;;;5054914;28;20472;-69
2021/04/26 14:23:25;;;;;;;4.10;3.80;;;;;;;;;;5055386;28;20449;-69
2021/04/26 14:25:52;;;;;;;4.73;4.33;;;;;;;;;;5055566;28;20521;-69
2021/04/26 14:28:19;;;;;;;4.83;3.93;;;;;;;;;;5055480;28;20513;-69
2021/04/26 14:30:46;;;;;;;4.97;4.47;;;;;;;;;;5055060;28;20783;-69
2021/04/26 14:33:13;;;;;;;5.33;4.77;;;;;;;;;;5055077;28;20563;-69
2021/04/26 14:35:46;;;;;;;4.13;3.83;;;;;;;;;;5054452;28;20452;-69
2021/04/26 14:38:17;;;;;;;7.57;4.70;;;;;;;;;;5055168;28;20450;-69
2021/04/26 14:40:44;;;;;;;4.93;4.27;;;;;;;;;;5055033;28;20517;-69
2021/04/26 14:43:10;;;;;;;5.20;4.70;;;;;;;;;;5054973;28;20527;-69
2021/04/26 14:45:37;;;;;;;7.43;4.67;;;;;;;;;;5055389;28;20923;-70
2021/04/26 14:48:04;;;;;;;7.10;4.97;;;;;;;;;;5056727;28;20484;-70
2021/04/26 14:50:31;;;;;;;5.50;4.30;;;;;;;;;;5055908;28;20926;-69
2021/04/26 14:52:58;;;;;;;6.37;4.30;;;;;;;;;;5054492;28;20856;-69